Terminal Aerodrome Forecast
Issued by NWS Upton, NY

Home | Current Version | Previous Version | Text Only | Print | Product List | Glossary On
Versions: 1 2 3 4 5 6 7 8 9 10 11 12 13 14 15 16
000
FTUS41 KOKX 280200 AAA
TAFLGA
TAF AMD
KLGA 280231Z 2803/2824 21006KT P6SM BKN250
     FM280600 22006KT P6SM BKN080 BKN250
     FM281200 26006KT P6SM -SHRA SCT025 OVC050
     FM281800 27008KT P6SM -SHRA BKN025 OVC040
     FM282300 31008KT P6SM SCT025 BKN040=

USA.gov is the U.S. government's official web portal to all federal, state and local government web resources and services.